SWA1054 KHVN-KBWI
Flight info
| Callsign | SWA1054 |
|---|---|
| Flight time | 1h 8m |
| Altitude | 36000 |
| Route | BEADS EMJAY Q167 ZIZZI LAFLN MIIDY3 |
| Aircraft | B38M/M-SDE1FGHILORVWXY/HB1 |
Departure
| Time | 2026-05-07 22:55 |
|---|---|
| Airport | Tweed New Haven Airport (KHVN) |
Arrival
| Time | 2026-05-08 00:03 |
|---|---|
| Airport | Baltimore/Washington International Thurgood Marshall Airport (KBWI) |
| Time | Latitude | Longitude | Altitude | Speed | Heading |
|---|---|---|---|---|---|
| 2026-05-07 22:34 | 41.26857 | -72.89077 | 18 ft | 0 kts | 311° |
| 2026-05-07 22:50 | 41.26848 | -72.89064 | 18 ft | 3 kts | 311° |
| 2026-05-07 22:50 | 41.26836 | -72.89045 | 18 ft | 3 kts | 311° |
| 2026-05-07 22:50 | 41.26824 | -72.89027 | 18 ft | 3 kts | 311° |
| 2026-05-07 22:50 | 41.26812 | -72.89008 | 17 ft | 3 kts | 311° |
| 2026-05-07 22:51 | 41.26798 | -72.88993 | 17 ft | 3 kts | 358° |
| 2026-05-07 22:51 | 41.26781 | -72.89000 | 21 ft | 3 kts | 62° |
| 2026-05-07 22:51 | 41.26777 | -72.89013 | 20 ft | 0 kts | 97° |
| 2026-05-07 22:51 | 41.26782 | -72.89007 | 19 ft | 3 kts | 51° |
| 2026-05-07 22:52 | 41.26839 | -72.88950 | 19 ft | 13 kts | 35° |
| 2026-05-07 22:52 | 41.26908 | -72.88916 | 17 ft | 9 kts | 7° |
| 2026-05-07 22:52 | 41.26980 | -72.88903 | 18 ft | 11 kts | 11° |
| 2026-05-07 22:52 | 41.27048 | -72.88852 | 18 ft | 12 kts | 40° |
| 2026-05-07 22:53 | 41.27098 | -72.88788 | 19 ft | 10 kts | 54° |
| 2026-05-07 22:53 | 41.27097 | -72.88739 | 18 ft | 3 kts | 135° |
| 2026-05-07 22:53 | 41.27090 | -72.88730 | 18 ft | 1 kts | 146° |
| 2026-05-07 22:53 | 41.27057 | -72.88728 | 18 ft | 5 kts | 181° |
| 2026-05-07 22:54 | 41.27053 | -72.88728 | 18 ft | 0 kts | 181° |
| 2026-05-07 22:54 | 41.26863 | -72.88741 | 17 ft | 63 kts | 183° |
| 2026-05-07 22:54 | 41.26201 | -72.88787 | 20 ft | 123 kts | 182° |
| 2026-05-07 22:54 | 41.25244 | -72.88838 | 154 ft | 151 kts | 184° |
| 2026-05-07 22:55 | 41.24168 | -72.88852 | 578 ft | 157 kts | 176° |
| 2026-05-07 22:55 | 41.23119 | -72.88394 | 1197 ft | 163 kts | 151° |
| 2026-05-07 22:55 | 41.21986 | -72.87491 | 1400 ft | 215 kts | 150° |
| 2026-05-07 22:55 | 41.20707 | -72.86274 | 1882 ft | 240 kts | 137° |
| 2026-05-07 22:56 | 41.19409 | -72.84768 | 2328 ft | 257 kts | 143° |
| 2026-05-07 22:56 | 41.17852 | -72.83499 | 2779 ft | 265 kts | 155° |
| 2026-05-07 22:56 | 41.16159 | -72.82476 | 3234 ft | 269 kts | 157° |
| 2026-05-07 22:56 | 41.14449 | -72.81419 | 3698 ft | 273 kts | 155° |
| 2026-05-07 22:57 | 41.12756 | -72.80276 | 4166 ft | 273 kts | 154° |
| 2026-05-07 22:57 | 41.11057 | -72.79120 | 4700 ft | 275 kts | 154° |
| 2026-05-07 22:57 | 41.09332 | -72.77973 | 5260 ft | 278 kts | 155° |
| 2026-05-07 22:57 | 41.07605 | -72.76834 | 5829 ft | 279 kts | 155° |
| 2026-05-07 22:58 | 41.05847 | -72.75668 | 6398 ft | 282 kts | 155° |
| 2026-05-07 22:58 | 41.04089 | -72.74500 | 6954 ft | 285 kts | 156° |
| 2026-05-07 22:58 | 41.02307 | -72.73317 | 7509 ft | 288 kts | 156° |
| 2026-05-07 22:58 | 41.00528 | -72.72139 | 8072 ft | 291 kts | 157° |
| 2026-05-07 22:59 | 40.98700 | -72.70929 | 8635 ft | 295 kts | 158° |
| 2026-05-07 22:59 | 40.96850 | -72.69704 | 9233 ft | 298 kts | 159° |
| 2026-05-07 22:59 | 40.94978 | -72.68466 | 9810 ft | 302 kts | 159° |
| 2026-05-07 22:59 | 40.93088 | -72.67217 | 10341 ft | 304 kts | 160° |
| 2026-05-07 23:00 | 40.91199 | -72.65967 | 10872 ft | 304 kts | 161° |
| 2026-05-07 23:00 | 40.89303 | -72.64716 | 11427 ft | 305 kts | 162° |
| 2026-05-07 23:00 | 40.87398 | -72.63459 | 11981 ft | 306 kts | 162° |
| 2026-05-07 23:00 | 40.85501 | -72.62204 | 12518 ft | 303 kts | 164° |
| 2026-05-07 23:01 | 40.83633 | -72.60974 | 13095 ft | 304 kts | 164° |
| 2026-05-07 23:01 | 40.81734 | -72.59727 | 13653 ft | 303 kts | 165° |
| 2026-05-07 23:01 | 40.79858 | -72.58488 | 14176 ft | 301 kts | 165° |
| 2026-05-07 23:01 | 40.77974 | -72.57252 | 14684 ft | 303 kts | 165° |
| 2026-05-07 23:02 | 40.76078 | -72.56017 | 15233 ft | 303 kts | 167° |
| 2026-05-07 23:02 | 40.74133 | -72.55463 | 15819 ft | 275 kts | 194° |
| 2026-05-07 23:02 | 40.72334 | -72.55978 | 16556 ft | 257 kts | 211° |
| 2026-05-07 23:02 | 40.70869 | -72.57167 | 17393 ft | 241 kts | 225° |
| 2026-05-07 23:03 | 40.69618 | -72.58622 | 18169 ft | 241 kts | 226° |
| 2026-05-07 23:03 | 40.68346 | -72.60092 | 18749 ft | 245 kts | 226° |
| 2026-05-07 23:03 | 40.67045 | -72.61562 | 19366 ft | 248 kts | 225° |
| 2026-05-07 23:03 | 40.65744 | -72.63026 | 19933 ft | 250 kts | 226° |
| 2026-05-07 23:04 | 40.64419 | -72.64524 | 20551 ft | 252 kts | 226° |
| 2026-05-07 23:04 | 40.63085 | -72.66034 | 21186 ft | 253 kts | 226° |
| 2026-05-07 23:04 | 40.61749 | -72.67545 | 21837 ft | 254 kts | 226° |
| 2026-05-07 23:04 | 40.60410 | -72.69057 | 22489 ft | 254 kts | 226° |
| 2026-05-07 23:05 | 40.59066 | -72.70574 | 23160 ft | 253 kts | 226° |
| 2026-05-07 23:05 | 40.57732 | -72.72078 | 23767 ft | 252 kts | 227° |
| 2026-05-07 23:05 | 40.56406 | -72.73572 | 24333 ft | 250 kts | 227° |
| 2026-05-07 23:05 | 40.55091 | -72.75054 | 24913 ft | 248 kts | 227° |
| 2026-05-07 23:06 | 40.53791 | -72.76519 | 25500 ft | 245 kts | 227° |
| 2026-05-07 23:06 | 40.52508 | -72.77962 | 26100 ft | 241 kts | 227° |
| 2026-05-07 23:06 | 40.51234 | -72.79398 | 26572 ft | 241 kts | 227° |
| 2026-05-07 23:06 | 40.49973 | -72.80818 | 27073 ft | 241 kts | 227° |
| 2026-05-07 23:07 | 40.48697 | -72.82251 | 27559 ft | 240 kts | 227° |
| 2026-05-07 23:07 | 40.47431 | -72.83673 | 28040 ft | 239 kts | 227° |
| 2026-05-07 23:07 | 40.46171 | -72.85087 | 28563 ft | 237 kts | 227° |
| 2026-05-07 23:07 | 40.44921 | -72.86490 | 29089 ft | 235 kts | 227° |
| 2026-05-07 23:08 | 40.43688 | -72.87872 | 29623 ft | 231 kts | 228° |
| 2026-05-07 23:08 | 40.42484 | -72.89220 | 30115 ft | 224 kts | 228° |
| 2026-05-07 23:08 | 40.42098 | -72.89652 | 30257 ft | 222 kts | 228° |
| 2026-05-07 23:09 | 40.41244 | -72.90608 | 30598 ft | 216 kts | 228° |
| 2026-05-07 23:09 | 40.40672 | -72.91247 | 30841 ft | 212 kts | 229° |
| 2026-05-07 23:10 | 40.40159 | -72.91823 | 31056 ft | 208 kts | 229° |
| 2026-05-07 23:10 | 40.39041 | -72.93083 | 31056 ft | 218 kts | 229° |
| 2026-05-07 23:11 | 40.35476 | -72.97079 | 31072 ft | 247 kts | 229° |
| 2026-05-07 23:11 | 40.34128 | -72.98588 | 30927 ft | 262 kts | 228° |
| 2026-05-07 23:11 | 40.32701 | -73.00183 | 30827 ft | 277 kts | 228° |
| 2026-05-07 23:11 | 40.31200 | -73.01857 | 30727 ft | 291 kts | 227° |
| 2026-05-07 23:12 | 40.29615 | -73.03626 | 30391 ft | 309 kts | 227° |
| 2026-05-07 23:12 | 40.27925 | -73.05513 | 30041 ft | 324 kts | 227° |
| 2026-05-07 23:12 | 40.26206 | -73.07414 | 29868 ft | 324 kts | 227° |
| 2026-05-07 23:13 | 40.22744 | -73.11266 | 29877 ft | 328 kts | 227° |
| 2026-05-07 23:13 | 40.19254 | -73.15144 | 29877 ft | 329 kts | 227° |
| 2026-05-07 23:14 | 40.15766 | -73.19015 | 29892 ft | 329 kts | 227° |
| 2026-05-07 23:14 | 40.12291 | -73.22866 | 29889 ft | 330 kts | 227° |
| 2026-05-07 23:15 | 40.08802 | -73.26726 | 29886 ft | 328 kts | 227° |
| 2026-05-07 23:15 | 40.05351 | -73.30609 | 29907 ft | 328 kts | 228° |
| 2026-05-07 23:16 | 40.01868 | -73.34512 | 29879 ft | 332 kts | 228° |
| 2026-05-07 23:16 | 39.98356 | -73.38437 | 29879 ft | 332 kts | 228° |
| 2026-05-07 23:17 | 39.94864 | -73.42341 | 29885 ft | 333 kts | 228° |
| 2026-05-07 23:17 | 39.91363 | -73.46242 | 29888 ft | 330 kts | 228° |
| 2026-05-07 23:18 | 39.87873 | -73.50135 | 29891 ft | 330 kts | 228° |
| 2026-05-07 23:18 | 39.84379 | -73.54020 | 29893 ft | 331 kts | 228° |
| 2026-05-07 23:19 | 39.80885 | -73.57916 | 29890 ft | 331 kts | 228° |
| 2026-05-07 23:19 | 39.77403 | -73.61789 | 29893 ft | 331 kts | 228° |
| 2026-05-07 23:20 | 39.73901 | -73.65680 | 29888 ft | 331 kts | 228° |
| 2026-05-07 23:20 | 39.70388 | -73.69579 | 29886 ft | 333 kts | 229° |
| 2026-05-07 23:21 | 39.66860 | -73.73487 | 29886 ft | 333 kts | 229° |
| 2026-05-07 23:21 | 39.63345 | -73.77377 | 29887 ft | 333 kts | 229° |
| 2026-05-07 23:22 | 39.59813 | -73.81280 | 29885 ft | 334 kts | 229° |
| 2026-05-07 23:22 | 39.56272 | -73.85187 | 29891 ft | 334 kts | 229° |
| 2026-05-07 23:23 | 39.52733 | -73.89087 | 29895 ft | 334 kts | 229° |
| 2026-05-07 23:23 | 39.49186 | -73.92990 | 29895 ft | 334 kts | 229° |
| 2026-05-07 23:24 | 39.45650 | -73.96875 | 29895 ft | 334 kts | 228° |
| 2026-05-07 23:24 | 39.42117 | -74.00752 | 29921 ft | 334 kts | 229° |
| 2026-05-07 23:25 | 39.38560 | -74.04648 | 29893 ft | 335 kts | 229° |
| 2026-05-07 23:25 | 39.34998 | -74.08539 | 29890 ft | 335 kts | 229° |
| 2026-05-07 23:26 | 39.31443 | -74.12421 | 29891 ft | 335 kts | 229° |
| 2026-05-07 23:26 | 39.27876 | -74.16308 | 29891 ft | 336 kts | 229° |
| 2026-05-07 23:27 | 39.22529 | -74.22127 | 29887 ft | 336 kts | 229° |
| 2026-05-07 23:27 | 39.18969 | -74.25994 | 29890 ft | 336 kts | 229° |
| 2026-05-07 23:28 | 39.15394 | -74.29871 | 29892 ft | 335 kts | 229° |
| 2026-05-07 23:28 | 39.11821 | -74.33742 | 29892 ft | 335 kts | 229° |
| 2026-05-07 23:29 | 39.08272 | -74.37583 | 29896 ft | 335 kts | 229° |
| 2026-05-07 23:29 | 39.04706 | -74.41435 | 29900 ft | 336 kts | 229° |
| 2026-05-07 23:30 | 39.01124 | -74.45299 | 29901 ft | 336 kts | 229° |
| 2026-05-07 23:30 | 38.97530 | -74.49171 | 29908 ft | 336 kts | 229° |
| 2026-05-07 23:31 | 38.94425 | -74.53431 | 29905 ft | 322 kts | 247° |
| 2026-05-07 23:31 | 38.93163 | -74.58855 | 29909 ft | 317 kts | 260° |
| 2026-05-07 23:32 | 38.92370 | -74.64432 | 29530 ft | 318 kts | 259° |
| 2026-05-07 23:32 | 38.92087 | -74.66276 | 29344 ft | 317 kts | 259° |
| 2026-05-07 23:32 | 38.91530 | -74.69969 | 28982 ft | 316 kts | 259° |
| 2026-05-07 23:33 | 38.91254 | -74.71837 | 28811 ft | 315 kts | 259° |
| 2026-05-07 23:33 | 38.90845 | -74.74594 | 28279 ft | 319 kts | 259° |
| 2026-05-07 23:33 | 38.90426 | -74.77390 | 27755 ft | 318 kts | 259° |
| 2026-05-07 23:33 | 38.89873 | -74.81068 | 27069 ft | 313 kts | 259° |
| 2026-05-07 23:34 | 38.89594 | -74.82921 | 26728 ft | 311 kts | 259° |
| 2026-05-07 23:34 | 38.89187 | -74.85634 | 26223 ft | 307 kts | 259° |
| 2026-05-07 23:34 | 38.88788 | -74.88277 | 25735 ft | 304 kts | 259° |
| 2026-05-07 23:34 | 38.88387 | -74.90934 | 25250 ft | 301 kts | 259° |
| 2026-05-07 23:35 | 38.87990 | -74.93560 | 24775 ft | 298 kts | 259° |
| 2026-05-07 23:35 | 38.87595 | -74.96167 | 24308 ft | 296 kts | 259° |
| 2026-05-07 23:35 | 38.87202 | -74.98757 | 23845 ft | 294 kts | 259° |
| 2026-05-07 23:35 | 38.86815 | -75.01307 | 23380 ft | 292 kts | 258° |
| 2026-05-07 23:36 | 38.86423 | -75.03880 | 22833 ft | 290 kts | 258° |
| 2026-05-07 23:36 | 38.86038 | -75.06404 | 22314 ft | 289 kts | 258° |
| 2026-05-07 23:36 | 38.85652 | -75.08936 | 21788 ft | 287 kts | 258° |
| 2026-05-07 23:36 | 38.85273 | -75.11416 | 21261 ft | 283 kts | 258° |
| 2026-05-07 23:37 | 38.84899 | -75.13860 | 20703 ft | 279 kts | 258° |
| 2026-05-07 23:37 | 38.84525 | -75.16296 | 20192 ft | 276 kts | 258° |
| 2026-05-07 23:37 | 38.84156 | -75.18703 | 19700 ft | 273 kts | 258° |
| 2026-05-07 23:37 | 38.83791 | -75.21080 | 19203 ft | 268 kts | 258° |
| 2026-05-07 23:38 | 38.83438 | -75.23373 | 18660 ft | 266 kts | 258° |
| 2026-05-07 23:38 | 38.83075 | -75.25724 | 18052 ft | 267 kts | 257° |
| 2026-05-07 23:38 | 38.82716 | -75.28049 | 17389 ft | 267 kts | 257° |
| 2026-05-07 23:38 | 38.82353 | -75.30394 | 16741 ft | 266 kts | 257° |
| 2026-05-07 23:39 | 38.81995 | -75.32708 | 16114 ft | 265 kts | 257° |
| 2026-05-07 23:39 | 38.81640 | -75.35000 | 15507 ft | 263 kts | 257° |
| 2026-05-07 23:39 | 38.81285 | -75.37284 | 14902 ft | 261 kts | 257° |
| 2026-05-07 23:39 | 38.80928 | -75.39580 | 14302 ft | 259 kts | 257° |
| 2026-05-07 23:40 | 38.80580 | -75.41818 | 13719 ft | 257 kts | 257° |
| 2026-05-07 23:40 | 38.80230 | -75.44062 | 13078 ft | 255 kts | 257° |
| 2026-05-07 23:40 | 38.79877 | -75.46314 | 12454 ft | 262 kts | 257° |
| 2026-05-07 23:40 | 38.79516 | -75.48623 | 11831 ft | 268 kts | 258° |
| 2026-05-07 23:41 | 38.79151 | -75.50970 | 11266 ft | 272 kts | 259° |
| 2026-05-07 23:41 | 38.78966 | -75.53384 | 11004 ft | 266 kts | 264° |
| 2026-05-07 23:41 | 38.78825 | -75.55660 | 10999 ft | 251 kts | 264° |
| 2026-05-07 23:41 | 38.78676 | -75.57881 | 10992 ft | 250 kts | 264° |
| 2026-05-07 23:42 | 38.78531 | -75.60088 | 10994 ft | 250 kts | 264° |
| 2026-05-07 23:42 | 38.78388 | -75.62320 | 10996 ft | 249 kts | 264° |
| 2026-05-07 23:42 | 38.78246 | -75.64520 | 10997 ft | 249 kts | 264° |
| 2026-05-07 23:42 | 38.78102 | -75.66744 | 10998 ft | 249 kts | 264° |
| 2026-05-07 23:43 | 38.77959 | -75.68935 | 10995 ft | 248 kts | 264° |
| 2026-05-07 23:43 | 38.77815 | -75.71135 | 10995 ft | 248 kts | 264° |
| 2026-05-07 23:43 | 38.77671 | -75.73338 | 10996 ft | 248 kts | 264° |
| 2026-05-07 23:43 | 38.77527 | -75.75532 | 10996 ft | 248 kts | 264° |
| 2026-05-07 23:44 | 38.77380 | -75.77753 | 10997 ft | 248 kts | 264° |
| 2026-05-07 23:44 | 38.77235 | -75.79950 | 11015 ft | 249 kts | 263° |
| 2026-05-07 23:44 | 38.77089 | -75.82148 | 11015 ft | 249 kts | 263° |
| 2026-05-07 23:44 | 38.76942 | -75.84371 | 10968 ft | 250 kts | 263° |
| 2026-05-07 23:45 | 38.76795 | -75.86575 | 10839 ft | 244 kts | 263° |
| 2026-05-07 23:45 | 38.76654 | -75.88694 | 10701 ft | 236 kts | 263° |
| 2026-05-07 23:45 | 38.76517 | -75.90742 | 10560 ft | 229 kts | 263° |
| 2026-05-07 23:45 | 38.76382 | -75.92747 | 10421 ft | 225 kts | 264° |
| 2026-05-07 23:46 | 38.76245 | -75.94762 | 10273 ft | 225 kts | 264° |
| 2026-05-07 23:46 | 38.76111 | -75.96751 | 10153 ft | 226 kts | 264° |
| 2026-05-07 23:46 | 38.75968 | -75.98837 | 10057 ft | 250 kts | 264° |
| 2026-05-07 23:46 | 38.75813 | -76.01113 | 9965 ft | 256 kts | 264° |
| 2026-05-07 23:47 | 38.75660 | -76.03380 | 9870 ft | 259 kts | 264° |
| 2026-05-07 23:47 | 38.75603 | -76.05683 | 9767 ft | 260 kts | 276° |
| 2026-05-07 23:47 | 38.76134 | -76.07935 | 9668 ft | 267 kts | 292° |
| 2026-05-07 23:47 | 38.77098 | -76.09961 | 9554 ft | 270 kts | 297° |
| 2026-05-07 23:48 | 38.78130 | -76.11994 | 9428 ft | 270 kts | 297° |
| 2026-05-07 23:48 | 38.79145 | -76.14013 | 9297 ft | 270 kts | 297° |
| 2026-05-07 23:48 | 38.80144 | -76.16028 | 9180 ft | 269 kts | 297° |
| 2026-05-07 23:48 | 38.80998 | -76.17747 | 9067 ft | 270 kts | 297° |
| 2026-05-07 23:49 | 38.82009 | -76.19779 | 8936 ft | 269 kts | 298° |
| 2026-05-07 23:49 | 38.83010 | -76.21789 | 8814 ft | 269 kts | 298° |
| 2026-05-07 23:49 | 38.84034 | -76.23852 | 8202 ft | 278 kts | 299° |
| 2026-05-07 23:49 | 38.85079 | -76.25962 | 7533 ft | 286 kts | 301° |
| 2026-05-07 23:50 | 38.86158 | -76.28131 | 7079 ft | 286 kts | 302° |
| 2026-05-07 23:50 | 38.87026 | -76.30022 | 6998 ft | 274 kts | 293° |
| 2026-05-07 23:50 | 38.87712 | -76.32276 | 7006 ft | 272 kts | 291° |
| 2026-05-07 23:50 | 38.88365 | -76.34551 | 7009 ft | 271 kts | 290° |
| 2026-05-07 23:51 | 38.89019 | -76.36798 | 7005 ft | 270 kts | 291° |
| 2026-05-07 23:51 | 38.89690 | -76.39071 | 7005 ft | 270 kts | 291° |
| 2026-05-07 23:51 | 38.90352 | -76.41316 | 7006 ft | 270 kts | 291° |
| 2026-05-07 23:51 | 38.91009 | -76.43556 | 7006 ft | 270 kts | 291° |
| 2026-05-07 23:52 | 38.91671 | -76.45821 | 7015 ft | 270 kts | 291° |
| 2026-05-07 23:52 | 38.92328 | -76.48063 | 7017 ft | 270 kts | 291° |
| 2026-05-07 23:52 | 38.93049 | -76.50299 | 7018 ft | 270 kts | 298° |
| 2026-05-07 23:52 | 38.93974 | -76.52391 | 7024 ft | 270 kts | 300° |
| 2026-05-07 23:53 | 38.94880 | -76.54407 | 6946 ft | 272 kts | 300° |
| 2026-05-07 23:53 | 38.95818 | -76.56521 | 6625 ft | 271 kts | 300° |
| 2026-05-07 23:53 | 38.96448 | -76.57955 | 6460 ft | 269 kts | 301° |
| 2026-05-07 23:53 | 38.97349 | -76.60002 | 6215 ft | 269 kts | 301° |
| 2026-05-07 23:54 | 38.98286 | -76.62088 | 5951 ft | 269 kts | 302° |
| 2026-05-07 23:54 | 38.99137 | -76.63974 | 5712 ft | 269 kts | 302° |
| 2026-05-07 23:54 | 39.00070 | -76.66055 | 5459 ft | 269 kts | 301° |
| 2026-05-07 23:54 | 39.01000 | -76.68139 | 5204 ft | 269 kts | 301° |
| 2026-05-07 23:55 | 39.01932 | -76.70226 | 4955 ft | 269 kts | 301° |
| 2026-05-07 23:55 | 39.02864 | -76.72312 | 4699 ft | 269 kts | 301° |
| 2026-05-07 23:55 | 39.03795 | -76.74389 | 4439 ft | 268 kts | 301° |
| 2026-05-07 23:55 | 39.04737 | -76.76468 | 4180 ft | 269 kts | 301° |
| 2026-05-07 23:56 | 39.05537 | -76.78238 | 4035 ft | 268 kts | 300° |
| 2026-05-07 23:56 | 39.06482 | -76.80333 | 4038 ft | 272 kts | 301° |
| 2026-05-07 23:56 | 39.07404 | -76.82449 | 4036 ft | 271 kts | 293° |
| 2026-05-07 23:56 | 39.07994 | -76.84764 | 4037 ft | 272 kts | 290° |
| 2026-05-07 23:57 | 39.08656 | -76.87041 | 4030 ft | 271 kts | 291° |
| 2026-05-07 23:57 | 39.09256 | -76.89163 | 4013 ft | 272 kts | 290° |
| 2026-05-07 23:57 | 39.09865 | -76.91473 | 4015 ft | 272 kts | 289° |
| 2026-05-07 23:57 | 39.10806 | -76.93505 | 4034 ft | 253 kts | 319° |
| 2026-05-07 23:58 | 39.12304 | -76.94296 | 4023 ft | 235 kts | 356° |
| 2026-05-07 23:58 | 39.13856 | -76.93653 | 4016 ft | 241 kts | 35° |
| 2026-05-07 23:58 | 39.14715 | -76.92019 | 3981 ft | 233 kts | 73° |
| 2026-05-07 23:58 | 39.14643 | -76.89961 | 3826 ft | 232 kts | 104° |
| 2026-05-07 23:59 | 39.14434 | -76.87941 | 3613 ft | 228 kts | 77° |
| 2026-05-07 23:59 | 39.15217 | -76.86245 | 3452 ft | 221 kts | 35° |
| 2026-05-07 23:59 | 39.16569 | -76.85314 | 3277 ft | 222 kts | 22° |
| 2026-05-07 23:59 | 39.17858 | -76.84255 | 3070 ft | 224 kts | 48° |
| 2026-05-08 00:00 | 39.18400 | -76.82398 | 2865 ft | 222 kts | 87° |
| 2026-05-08 00:00 | 39.18284 | -76.80589 | 2678 ft | 182 kts | 98° |
| 2026-05-08 00:00 | 39.18103 | -76.79065 | 2195 ft | 167 kts | 99° |
| 2026-05-08 00:00 | 39.17973 | -76.77607 | 2154 ft | 165 kts | 96° |
| 2026-05-08 00:01 | 39.17909 | -76.76650 | 2042 ft | 168 kts | 95° |
| 2026-05-08 00:01 | 39.17827 | -76.75112 | 1407 ft | 166 kts | 95° |
| 2026-05-08 00:01 | 39.17761 | -76.73674 | 933 ft | 157 kts | 96° |
| 2026-05-08 00:01 | 39.17678 | -76.72317 | 714 ft | 148 kts | 96° |
| 2026-05-08 00:02 | 39.17611 | -76.70998 | 504 ft | 146 kts | 97° |
| 2026-05-08 00:02 | 39.17587 | -76.70671 | 477 ft | 144 kts | 97° |
| 2026-05-08 00:02 | 39.17521 | -76.69638 | 315 ft | 144 kts | 95° |
| 2026-05-08 00:03 | 39.17448 | -76.68381 | 183 ft | 137 kts | 97° |
| 2026-05-08 00:03 | 39.17373 | -76.67216 | 163 ft | 119 kts | 95° |
| 2026-05-08 00:03 | 39.17330 | -76.66418 | 155 ft | 63 kts | 94° |
| 2026-05-08 00:03 | 39.17310 | -76.66051 | 152 ft | 29 kts | 94° |
| 2026-05-08 00:04 | 39.17315 | -76.65915 | 154 ft | 10 kts | 57° |
| 2026-05-08 00:04 | 39.17345 | -76.65899 | 154 ft | 7 kts | 11° |
| 2026-05-08 00:04 | 39.17430 | -76.65932 | 151 ft | 15 kts | 301° |
| 2026-05-08 00:04 | 39.17458 | -76.66019 | 152 ft | 6 kts | 274° |
| 2026-05-08 00:05 | 39.17457 | -76.66053 | 152 ft | 6 kts | 265° |
| 2026-05-08 00:05 | 39.17455 | -76.66095 | 153 ft | 15 kts | 267° |
| 2026-05-08 00:05 | 39.17458 | -76.66216 | 153 ft | 11 kts | 279° |
| 2026-05-08 00:05 | 39.17502 | -76.66330 | 152 ft | 19 kts | 304° |
| 2026-05-08 00:06 | 39.17559 | -76.66456 | 155 ft | 13 kts | 283° |
| 2026-05-08 00:06 | 39.17535 | -76.66545 | 156 ft | 10 kts | 238° |
| 2026-05-08 00:06 | 39.17526 | -76.66571 | 157 ft | 9 kts | 254° |
| 2026-05-08 00:06 | 39.17524 | -76.66599 | 158 ft | 8 kts | 268° |
| 2026-05-08 00:07 | 39.17524 | -76.66624 | 158 ft | 10 kts | 268° |
| 2026-05-08 00:07 | 39.17542 | -76.66758 | 160 ft | 12 kts | 313° |
| 2026-05-08 00:07 | 39.17578 | -76.66772 | 159 ft | 8 kts | 0° |
| 2026-05-08 00:07 | 39.17668 | -76.66789 | 159 ft | 8 kts | 324° |
| 2026-05-08 00:08 | 39.17685 | -76.66837 | 160 ft | 7 kts | 275° |
| 2026-05-08 00:08 | 39.17681 | -76.66870 | 160 ft | 0 kts | 246° |